createdAt,value
2022-11-29T00:01:36.176Z,11.23
2022-11-29T00:04:06.194Z,13.88
2022-11-29T00:06:34.646Z,13.98
2022-11-29T00:09:06.413Z,13.70
2022-11-29T00:11:54.909Z,14.95
2022-11-29T00:14:22.357Z,12.07
2022-11-29T00:16:57.137Z,11.93
2022-11-29T00:19:23.946Z,9.05
2022-11-29T00:21:51.136Z,12.35
2022-11-29T00:24:17.966Z,11.82
2022-11-29T00:26:44.663Z,11.77
2022-11-29T00:29:12.908Z,12.57
2022-11-29T00:31:42.318Z,13.52
2022-11-29T00:34:10.832Z,11.75
2022-11-29T00:36:40.304Z,13.77
2022-11-29T00:39:07.063Z,14.70
2022-11-29T00:41:34.114Z,14.73
2022-11-29T00:44:01.126Z,13.43
2022-11-29T00:46:28.669Z,13.35
2022-11-29T00:48:55.360Z,13.52
2022-11-29T00:51:22.037Z,13.07
2022-11-29T00:53:51.265Z,12.25
2022-11-29T00:56:17.943Z,13.60
2022-11-29T00:58:44.721Z,13.32
2022-11-29T01:01:11.936Z,13.38
2022-11-29T01:03:38.880Z,11.10
2022-11-29T01:06:13.977Z,10.55
2022-11-29T01:08:40.939Z,13.45
2022-11-29T01:11:11.623Z,11.02
2022-11-29T01:13:39.011Z,13.27
2022-11-29T01:16:06.682Z,14.52
2022-11-29T01:18:34.086Z,10.93
2022-11-29T01:21:04.421Z,11.65
2022-11-29T01:23:31.276Z,12.30
2022-11-29T01:26:07.496Z,12.38
2022-11-29T01:28:37.740Z,10.55
2022-11-29T01:31:13.386Z,10.75
2022-11-29T01:33:40.409Z,8.82
2022-11-29T01:36:08.282Z,11.30
2022-11-29T01:38:35.979Z,11.45
2022-11-29T01:41:04.492Z,13.07
2022-11-29T01:43:32.148Z,11.50
2022-11-29T01:45:59.118Z,13.45
2022-11-29T01:48:31.991Z,13.40
2022-11-29T01:51:00.709Z,11.43
2022-11-29T01:53:30.496Z,12.43
2022-11-29T01:56:02.675Z,13.63
2022-11-29T01:58:29.840Z,13.35
2022-11-29T02:00:58.263Z,14.75
2022-11-29T02:03:25.228Z,13.77
2022-11-29T02:05:58.204Z,14.43
2022-11-29T02:08:35.874Z,12.52
2022-11-29T02:11:13.748Z,12.70
2022-11-29T02:13:56.310Z,13.68
2022-11-29T02:16:58.403Z,13.55
2022-11-29T02:19:42.932Z,7.68
2022-11-29T02:22:24.469Z,12.85
2022-11-29T02:25:10.041Z,12.18
2022-11-29T02:28:09.782Z,12.38
2022-11-29T02:30:58.410Z,15.10
2022-11-29T02:33:40.786Z,12.85
2022-11-29T02:36:33.988Z,12.55
2022-11-29T02:39:05.597Z,9.10
2022-11-29T02:41:54.303Z,14.52
2022-11-29T02:44:44.436Z,13.02
2022-11-29T02:47:36.359Z,14.15
2022-11-29T02:50:17.568Z,14.27
2022-11-29T02:53:06.330Z,16.65
2022-11-29T02:56:08.432Z,12.40
2022-11-29T02:58:48.064Z,12.32
2022-11-29T03:01:28.402Z,11.95
2022-11-29T03:04:14.441Z,12.85
2022-11-29T03:06:58.852Z,12.02
2022-11-29T03:10:03.753Z,10.85
2022-11-29T03:12:46.389Z,12.02
2022-11-29T03:15:48.514Z,12.27
2022-11-29T03:18:50.787Z,15.13
2022-11-29T03:21:23.762Z,14.85
2022-11-29T03:23:54.952Z,10.63
2022-11-29T03:26:32.035Z,13.10
2022-11-29T03:29:18.979Z,14.35
2022-11-29T03:32:09.071Z,13.13
2022-11-29T03:34:57.152Z,12.00
2022-11-29T03:37:53.176Z,10.75
2022-11-29T03:40:24.419Z,9.85
2022-11-29T03:43:00.622Z,13.60
2022-11-29T03:45:36.408Z,12.75
2022-11-29T03:48:23.212Z,13.68
2022-11-29T03:50:59.315Z,13.82
2022-11-29T03:53:33.804Z,15.65
2022-11-29T03:56:03.675Z,11.27
2022-11-29T03:58:42.536Z,13.98
2022-11-29T04:01:21.168Z,13.13
2022-11-29T04:04:17.134Z,11.68
2022-11-29T04:07:21.479Z,13.93
2022-11-29T04:09:59.618Z,12.98
2022-11-29T04:12:32.466Z,14.60
2022-11-29T04:15:20.200Z,18.63
2022-11-29T04:18:18.724Z,16.95
2022-11-29T04:21:12.581Z,17.48
2022-11-29T04:23:55.779Z,11.80
2022-11-29T04:26:35.196Z,15.93
2022-11-29T04:29:26.271Z,18.67
2022-11-29T04:32:08.225Z,17.90
2022-11-29T04:35:09.260Z,16.20
2022-11-29T04:37:54.287Z,12.30
2022-11-29T04:40:48.337Z,18.20
2022-11-29T04:43:36.618Z,16.67
2022-11-29T04:46:32.218Z,18.15
2022-11-29T04:49:17.777Z,15.52
2022-11-29T04:51:53.362Z,17.65
2022-11-29T04:54:43.666Z,16.50
2022-11-29T04:57:32.760Z,12.65
2022-11-29T05:00:15.647Z,14.55
2022-11-29T05:02:58.964Z,17.15
2022-11-29T05:05:52.671Z,14.68
2022-11-29T05:08:37.060Z,15.13
2022-11-29T05:11:28.427Z,14.13
2022-11-29T05:14:16.572Z,20.45
2022-11-29T05:16:43.255Z,20.85
2022-11-29T05:19:12.640Z,22.27
2022-11-29T05:21:58.019Z,19.20
2022-11-29T05:24:51.337Z,20.92
2022-11-29T05:27:34.596Z,18.20
2022-11-29T05:30:20.850Z,20.40
2022-11-29T05:33:11.846Z,22.85
2022-11-29T05:36:01.695Z,20.63
2022-11-29T05:38:59.221Z,22.33
2022-11-29T05:41:43.513Z,21.60
2022-11-29T05:44:30.131Z,25.25
2022-11-29T05:47:03.221Z,18.77
2022-11-29T05:49:41.868Z,19.65
2022-11-29T05:52:35.028Z,21.45
2022-11-29T05:55:07.656Z,18.20
2022-11-29T05:57:39.713Z,21.13
2022-11-29T06:02:56.101Z,18.60
2022-11-29T06:05:52.942Z,14.68
2022-11-29T06:08:44.144Z,22.63
2022-11-29T06:11:15.877Z,19.08
2022-11-29T06:13:55.072Z,20.10
2022-11-29T06:17:08.251Z,21.55
2022-11-29T06:19:53.383Z,22.08
2022-11-29T06:22:28.152Z,21.20
2022-11-29T06:25:18.513Z,23.83
2022-11-29T06:28:14.109Z,25.75
2022-11-29T06:31:16.708Z,21.88
2022-11-29T06:33:53.837Z,26.02
2022-11-29T06:36:35.835Z,25.23
2022-11-29T06:39:05.418Z,22.45
2022-11-29T06:41:34.830Z,32.85
2022-11-29T06:44:01.745Z,34.35
2022-11-29T06:46:48.793Z,41.50
2022-11-29T06:49:27.390Z,33.28
2022-11-29T06:51:56.788Z,27.90
2022-11-29T06:54:40.647Z,23.70
2022-11-29T06:57:34.215Z,22.05
2022-11-29T07:00:03.635Z,23.45
2022-11-29T07:02:54.648Z,21.98
2022-11-29T07:05:34.614Z,19.98
2022-11-29T07:08:05.123Z,19.73
2022-11-29T07:10:36.105Z,15.95
2022-11-29T07:13:05.640Z,23.15
2022-11-29T07:15:32.780Z,19.40
2022-11-29T07:18:25.156Z,27.52
2022-11-29T07:23:48.522Z,27.10
2022-11-29T07:26:28.985Z,25.85
2022-11-29T07:29:16.608Z,24.48
2022-11-29T07:31:52.315Z,25.98
2022-11-29T07:34:38.943Z,27.92
2022-11-29T07:37:27.189Z,24.15
2022-11-29T07:40:13.111Z,20.83
2022-11-29T07:42:52.300Z,22.52
2022-11-29T07:45:34.411Z,28.55
2022-11-29T07:48:01.804Z,32.30
2022-11-29T07:50:31.933Z,26.70
2022-11-29T07:53:00.108Z,24.23
2022-11-29T07:55:27.735Z,28.08
2022-11-29T07:57:57.103Z,29.98
2022-11-29T08:00:26.380Z,26.13
2022-11-29T08:02:56.542Z,34.13
2022-11-29T08:05:24.109Z,27.58
2022-11-29T08:08:03.949Z,33.30
2022-11-29T08:10:31.059Z,32.97
2022-11-29T08:13:05.851Z,31.98
2022-11-29T08:15:32.827Z,26.50
2022-11-29T08:18:00.001Z,29.05
2022-11-29T08:20:33.601Z,21.55
2022-11-29T08:23:00.713Z,30.92
2022-11-29T08:25:28.281Z,31.98
2022-11-29T08:27:56.309Z,31.90
2022-11-29T08:30:28.177Z,26.92
2022-11-29T08:32:55.248Z,25.73
2022-11-29T08:35:28.496Z,27.98
2022-11-29T08:37:58.052Z,31.42
2022-11-29T08:40:25.383Z,24.70
2022-11-29T08:42:55.468Z,30.63
2022-11-29T08:45:22.498Z,26.60
2022-11-29T08:47:49.561Z,27.08
2022-11-29T08:50:19.386Z,22.63
2022-11-29T08:53:10.710Z,22.45
2022-11-29T08:55:43.279Z,20.13
2022-11-29T08:58:13.252Z,17.83
2022-11-29T09:00:42.925Z,12.35
2022-11-29T09:03:28.505Z,11.68
2022-11-29T09:05:55.567Z,10.40
2022-11-29T09:08:24.638Z,9.45
2022-11-29T09:10:51.791Z,9.25
2022-11-29T09:13:18.892Z,9.48
2022-11-29T09:15:53.086Z,8.13
2022-11-29T09:18:22.501Z,9.30
2022-11-29T09:20:52.546Z,9.05
2022-11-29T09:23:22.188Z,9.15
2022-11-29T09:25:51.725Z,8.65
2022-11-29T09:28:18.733Z,8.52
2022-11-29T09:30:49.737Z,9.13
2022-11-29T09:33:19.389Z,10.02
2022-11-29T09:35:49.447Z,12.93
2022-11-29T09:38:24.470Z,13.88
2022-11-29T09:40:55.088Z,14.02
2022-11-29T09:43:34.133Z,10.65
2022-11-29T09:46:22.207Z,8.60
2022-11-29T09:48:59.213Z,9.15
2022-11-29T09:51:51.219Z,10.38
2022-11-29T09:54:22.561Z,8.80
2022-11-29T09:56:52.688Z,9.23
2022-11-29T09:59:34.291Z,8.43
2022-11-29T10:02:29.404Z,9.02
2022-11-29T10:05:13.413Z,10.18
2022-11-29T10:07:50.312Z,7.95
2022-11-29T10:10:31.394Z,9.70
2022-11-29T10:13:11.577Z,12.95
2022-11-29T10:15:43.489Z,11.20
2022-11-29T10:18:32.468Z,10.10
2022-11-29T10:21:12.888Z,9.35
2022-11-29T10:23:46.524Z,10.90
2022-11-29T10:26:15.962Z,11.77
2022-11-29T10:28:51.161Z,10.23
2022-11-29T10:31:32.590Z,11.20
2022-11-29T10:34:05.381Z,10.30
2022-11-29T10:36:46.847Z,12.27
2022-11-29T10:39:38.611Z,9.40
2022-11-29T10:42:29.710Z,10.48
2022-11-29T10:44:58.216Z,13.55
2022-11-29T10:47:25.618Z,11.60
2022-11-29T10:49:55.071Z,12.32
2022-11-29T10:52:23.376Z,12.95
2022-11-29T10:54:58.442Z,12.45
2022-11-29T10:57:32.759Z,13.15
2022-11-29T11:00:10.032Z,12.77
2022-11-29T11:02:37.905Z,11.90
2022-11-29T11:05:19.028Z,13.65
2022-11-29T11:07:57.421Z,12.27
2022-11-29T11:10:31.933Z,12.82
2022-11-29T11:13:19.104Z,11.55
2022-11-29T11:15:48.497Z,12.60
2022-11-29T11:18:25.624Z,12.00
2022-11-29T11:21:00.677Z,13.18
2022-11-29T11:23:43.058Z,11.25
2022-11-29T11:26:13.091Z,11.60
2022-11-29T11:28:58.077Z,11.23
2022-11-29T11:31:39.703Z,10.93
2022-11-29T11:34:27.579Z,11.77
2022-11-29T11:37:16.518Z,10.75
2022-11-29T11:39:45.833Z,11.32
2022-11-29T11:42:39.982Z,11.45
2022-11-29T11:45:28.055Z,10.05
2022-11-29T11:48:08.621Z,9.27
2022-11-29T11:50:44.084Z,11.50
2022-11-29T11:53:36.481Z,8.23
2022-11-29T11:58:43.245Z,8.63
2022-11-29T12:01:15.442Z,9.65
2022-11-29T12:04:18.592Z,10.68
2022-11-29T12:07:06.026Z,11.15
2022-11-29T12:09:34.528Z,12.25
2022-11-29T12:12:38.402Z,10.52
2022-11-29T12:15:50.360Z,10.77
2022-11-29T12:18:34.274Z,10.45
2022-11-29T12:21:14.423Z,9.55
2022-11-29T12:23:52.654Z,10.15
2022-11-29T12:26:57.045Z,11.45
2022-11-29T12:29:22.579Z,11.43
2022-11-29T12:31:58.248Z,10.25
2022-11-29T12:34:46.502Z,9.00
2022-11-29T12:37:34.956Z,10.95
2022-11-29T12:40:26.346Z,10.23
2022-11-29T12:42:53.502Z,8.97
2022-11-29T12:45:32.143Z,9.25
2022-11-29T12:48:23.484Z,10.00
2022-11-29T12:50:56.271Z,10.27
2022-11-29T12:53:49.970Z,12.13
2022-11-29T12:56:44.348Z,10.60
2022-11-29T12:59:26.775Z,7.78
2022-11-29T13:02:15.839Z,9.73
2022-11-29T13:05:01.695Z,8.13
2022-11-29T13:07:41.011Z,8.73
2022-11-29T13:10:20.097Z,8.40
2022-11-29T13:12:55.298Z,9.35
2022-11-29T13:15:32.219Z,10.18
2022-11-29T13:18:18.695Z,10.52
2022-11-29T13:20:53.350Z,9.85
2022-11-29T13:23:52.917Z,5.85
2022-11-29T13:26:25.215Z,6.72
2022-11-29T13:28:58.336Z,6.60
2022-11-29T13:31:28.979Z,5.07
2022-11-29T13:34:17.129Z,5.97
2022-11-29T13:36:56.045Z,5.07
2022-11-29T13:39:52.381Z,6.00
2022-11-29T13:43:01.682Z,5.22
2022-11-29T13:45:42.723Z,5.05
2022-11-29T13:48:49.040Z,4.65
2022-11-29T13:51:38.933Z,4.78
2022-11-29T13:54:25.600Z,3.53
2022-11-29T13:57:10.955Z,4.20
2022-11-29T13:59:45.872Z,5.72
2022-11-29T14:02:31.707Z,4.20
2022-11-29T14:05:01.536Z,5.60
2022-11-29T14:07:33.274Z,4.55
2022-11-29T14:10:26.418Z,5.28
2022-11-29T14:12:59.922Z,3.60
2022-11-29T14:15:32.355Z,4.85
2022-11-29T14:18:08.885Z,3.53
2022-11-29T14:20:56.085Z,4.50
2022-11-29T14:23:37.817Z,4.65
2022-11-29T14:26:05.063Z,4.03
2022-11-29T14:28:33.651Z,4.25
2022-11-29T14:31:03.777Z,5.18
2022-11-29T14:33:53.537Z,4.10
2022-11-29T14:36:38.375Z,4.43
2022-11-29T14:39:08.120Z,4.30
2022-11-29T14:47:48.255Z,5.07
2022-11-29T14:50:35.675Z,5.32
2022-11-29T14:53:04.346Z,5.10
2022-11-29T14:55:43.130Z,6.32
2022-11-29T14:58:20.724Z,6.60
2022-11-29T15:00:47.863Z,5.35
2022-11-29T15:03:21.455Z,5.88
2022-11-29T15:05:55.382Z,6.35
2022-11-29T15:08:51.838Z,5.25
2022-11-29T15:11:34.199Z,4.78
2022-11-29T15:14:04.321Z,5.68
2022-11-29T15:16:42.912Z,6.40
2022-11-29T15:19:24.875Z,7.13
2022-11-29T15:22:07.361Z,10.60
2022-11-29T15:24:56.608Z,8.98
2022-11-29T15:27:24.028Z,7.07
2022-11-29T15:29:52.326Z,7.75
2022-11-29T15:32:30.875Z,6.43
2022-11-29T15:34:58.348Z,7.38
2022-11-29T15:37:44.424Z,5.38
2022-11-29T15:40:20.287Z,6.05
2022-11-29T15:43:02.181Z,7.03
2022-11-29T15:45:39.797Z,7.70
2022-11-29T15:48:17.778Z,8.68
2022-11-29T15:50:58.728Z,9.10
2022-11-29T15:53:35.576Z,9.68
2022-11-29T15:56:05.189Z,21.95
2022-11-29T15:58:33.815Z,19.42
2022-11-29T16:01:01.948Z,17.35
2022-11-29T16:03:32.655Z,15.07
2022-11-29T16:06:19.962Z,16.88
2022-11-29T16:08:47.447Z,18.63
2022-11-29T16:11:18.066Z,14.02
2022-11-29T16:14:12.748Z,10.68
2022-11-29T16:16:50.006Z,13.70
2022-11-29T16:19:22.506Z,11.60
2022-11-29T16:21:59.453Z,13.80
2022-11-29T16:24:26.926Z,15.18
2022-11-29T16:26:54.423Z,11.82
2022-11-29T16:29:25.696Z,10.60
2022-11-29T16:31:55.799Z,10.77
2022-11-29T16:34:33.975Z,8.82
2022-11-29T16:37:06.603Z,7.22
2022-11-29T16:39:37.120Z,13.85
2022-11-29T16:42:07.359Z,18.92
2022-11-29T16:44:42.597Z,20.90
2022-11-29T16:47:20.098Z,17.45
2022-11-29T16:50:06.319Z,18.23
2022-11-29T16:52:36.202Z,14.57
2022-11-29T16:55:02.997Z,12.05
2022-11-29T16:57:31.015Z,9.65
2022-11-29T17:00:00.541Z,10.75
2022-11-29T17:02:30.066Z,10.10
2022-11-29T17:05:01.930Z,11.15
2022-11-29T17:07:35.272Z,9.40
2022-11-29T17:10:03.932Z,9.45
2022-11-29T17:12:30.663Z,10.98
2022-11-29T17:14:57.341Z,9.95
2022-11-29T17:17:24.203Z,10.18
2022-11-29T17:19:50.939Z,9.95
2022-11-29T17:22:17.617Z,10.15
2022-11-29T17:24:48.477Z,12.73
2022-11-29T17:27:17.700Z,10.98
2022-11-29T17:29:44.422Z,10.32
2022-11-29T17:32:11.225Z,14.95
2022-11-29T17:34:40.129Z,14.23
2022-11-29T17:37:09.003Z,12.57
2022-11-29T17:39:38.151Z,12.98
2022-11-29T17:42:06.858Z,15.18
2022-11-29T17:44:36.177Z,13.95
2022-11-29T17:47:02.882Z,16.38
2022-11-29T17:49:31.789Z,24.35
2022-11-29T17:54:53.447Z,15.18
2022-11-29T17:57:20.263Z,13.32
2022-11-29T17:59:47.147Z,12.55
2022-11-29T18:02:14.069Z,14.38
2022-11-29T18:04:42.704Z,12.43
2022-11-29T18:07:12.987Z,14.68
2022-11-29T18:09:39.633Z,13.43
2022-11-29T18:12:09.092Z,13.80
2022-11-29T18:14:38.215Z,15.70
2022-11-29T18:17:04.946Z,15.25
2022-11-29T18:19:31.727Z,14.00
2022-11-29T18:22:03.205Z,13.20
2022-11-29T18:24:29.972Z,10.95
2022-11-29T18:26:56.660Z,12.43
2022-11-29T18:29:23.399Z,14.85
2022-11-29T18:31:52.941Z,17.50
2022-11-29T18:34:19.667Z,14.90
2022-11-29T18:36:49.414Z,16.65
2022-11-29T18:39:19.058Z,17.92
2022-11-29T18:41:50.260Z,18.08
2022-11-29T18:44:29.269Z,14.93
2022-11-29T18:46:57.014Z,16.67
2022-11-29T18:49:23.813Z,15.32
2022-11-29T18:51:50.770Z,23.58
2022-11-29T18:54:22.467Z,21.10
2022-11-29T18:56:53.956Z,18.13
2022-11-29T18:59:22.083Z,19.35
2022-11-29T19:01:49.255Z,16.35
2022-11-29T19:04:18.547Z,25.98
2022-11-29T19:06:45.487Z,26.00
2022-11-29T19:09:16.300Z,20.83
2022-11-29T19:11:43.263Z,17.38
2022-11-29T19:14:14.140Z,18.33
2022-11-29T19:16:43.984Z,18.92
2022-11-29T19:19:11.542Z,20.23
2022-11-29T19:21:41.602Z,15.13
2022-11-29T19:24:15.671Z,21.48
2022-11-29T19:26:44.945Z,19.20
2022-11-29T19:29:15.367Z,19.85
2022-11-29T19:31:43.118Z,20.50
2022-11-29T19:34:10.215Z,19.70
2022-11-29T19:36:42.643Z,16.85
2022-11-29T19:39:15.650Z,20.40
2022-11-29T19:41:45.456Z,19.13
2022-11-29T19:44:12.931Z,21.25
2022-11-29T19:46:42.926Z,16.95
2022-11-29T19:49:13.009Z,17.90
2022-11-29T19:51:39.977Z,17.48
2022-11-29T19:54:09.381Z,16.23
2022-11-29T19:56:36.359Z,16.38
2022-11-29T19:59:03.200Z,13.70
2022-11-29T20:01:39.763Z,15.75
2022-11-29T20:04:08.105Z,17.33
2022-11-29T20:06:35.072Z,16.63
2022-11-29T20:09:04.738Z,15.77
2022-11-29T20:11:31.457Z,12.15
2022-11-29T20:14:00.665Z,18.17
2022-11-29T20:16:30.697Z,13.73
2022-11-29T20:18:58.347Z,14.60
2022-11-29T20:21:28.248Z,14.60
2022-11-29T20:24:06.191Z,14.80
2022-11-29T20:26:34.791Z,15.05
2022-11-29T20:29:04.637Z,10.23
2022-11-29T20:31:32.431Z,15.48
2022-11-29T20:34:02.416Z,15.88
2022-11-29T20:36:47.244Z,14.38
2022-11-29T20:39:32.124Z,18.25
2022-11-29T20:42:37.670Z,15.00
2022-11-29T20:45:12.060Z,17.10
2022-11-29T20:47:52.870Z,15.60
2022-11-29T20:50:25.239Z,16.02
2022-11-29T20:53:07.718Z,17.00
2022-11-29T20:55:42.552Z,10.43
2022-11-29T20:58:13.164Z,15.00
2022-11-29T21:00:42.163Z,13.93
2022-11-29T21:03:15.285Z,13.30
2022-11-29T21:05:45.044Z,14.13
2022-11-29T21:08:15.681Z,14.52
2022-11-29T21:10:42.476Z,15.50
2022-11-29T21:13:12.455Z,16.52
2022-11-29T21:15:39.657Z,16.73
2022-11-29T21:18:06.880Z,16.17
2022-11-29T21:20:33.936Z,9.80
2022-11-29T21:23:07.220Z,13.50
2022-11-29T21:25:59.581Z,15.40
2022-11-29T21:30:57.101Z,14.52
2022-11-29T21:33:24.199Z,14.48
2022-11-29T21:35:57.932Z,15.77
2022-11-29T21:38:28.621Z,14.60
2022-11-29T21:40:55.311Z,16.90
2022-11-29T21:43:28.714Z,17.80
2022-11-29T21:46:09.038Z,15.93
2022-11-29T21:48:35.939Z,15.18
2022-11-29T21:51:04.042Z,10.30
2022-11-29T21:53:35.520Z,16.83
2022-11-29T21:56:07.433Z,14.23
2022-11-29T21:58:35.534Z,14.82
2022-11-29T22:01:16.426Z,16.83
2022-11-29T22:03:43.635Z,11.38
2022-11-29T22:06:20.488Z,12.82
2022-11-29T22:08:48.590Z,15.77
2022-11-29T22:11:30.460Z,10.35
2022-11-29T22:14:14.026Z,11.48
2022-11-29T22:16:55.164Z,15.95
2022-11-29T22:19:32.069Z,17.70
2022-11-29T22:22:01.435Z,13.65
2022-11-29T22:24:30.563Z,15.77
2022-11-29T22:26:57.484Z,13.35
2022-11-29T22:29:25.005Z,13.50
2022-11-29T22:31:55.024Z,14.15
2022-11-29T22:34:22.843Z,15.00
2022-11-29T22:36:52.132Z,16.63
2022-11-29T22:39:18.943Z,16.67
2022-11-29T22:41:52.272Z,16.02
2022-11-29T22:44:21.115Z,15.63
2022-11-29T22:46:47.922Z,17.02
2022-11-29T22:49:14.922Z,17.42
2022-11-29T22:51:41.907Z,16.83
2022-11-29T22:54:11.450Z,19.10
2022-11-29T22:56:40.242Z,19.98
2022-11-29T22:59:10.265Z,15.68
2022-11-29T23:01:39.671Z,17.92
2022-11-29T23:04:10.359Z,15.73
2022-11-29T23:06:42.499Z,16.65
2022-11-29T23:11:46.320Z,17.65
2022-11-29T23:14:13.691Z,17.60
2022-11-29T23:16:43.196Z,17.90
2022-11-29T23:19:12.293Z,14.32
2022-11-29T23:21:40.370Z,16.33
2022-11-29T23:24:07.357Z,14.20
2022-11-29T23:26:41.355Z,20.00
2022-11-29T23:29:15.409Z,19.63
2022-11-29T23:31:42.258Z,18.55
2022-11-29T23:34:09.388Z,17.30
2022-11-29T23:36:38.527Z,18.77
2022-11-29T23:39:10.496Z,16.80
2022-11-29T23:41:39.611Z,13.68
2022-11-29T23:44:09.418Z,17.25
2022-11-29T23:46:38.577Z,16.38
2022-11-29T23:49:05.272Z,19.13
2022-11-29T23:51:31.992Z,14.93
2022-11-29T23:53:58.787Z,17.80
2022-11-29T23:56:35.209Z,13.45
2022-11-29T23:59:04.551Z,16.85
